createdAt,value
2023-05-09T00:01:08.800Z,7.45
2023-05-09T00:03:38.208Z,7.45
2023-05-09T00:06:06.985Z,7.47
2023-05-09T00:08:35.263Z,7.48
2023-05-09T00:11:03.777Z,7.48
2023-05-09T00:13:31.833Z,7.53
2023-05-09T00:16:00.063Z,7.49
2023-05-09T00:18:28.591Z,7.45
2023-05-09T00:20:58.121Z,7.44
2023-05-09T00:23:26.181Z,7.39
2023-05-09T00:25:54.287Z,7.39
2023-05-09T00:28:22.448Z,7.31
2023-05-09T00:30:51.141Z,7.29
2023-05-09T00:33:19.144Z,7.26
2023-05-09T00:35:47.325Z,7.20
2023-05-09T00:38:16.837Z,7.16
2023-05-09T00:40:44.888Z,7.16
2023-05-09T00:43:13.025Z,7.12
2023-05-09T00:45:41.596Z,7.08
2023-05-09T00:48:09.842Z,7.05
2023-05-09T00:50:38.066Z,6.96
2023-05-09T00:53:06.813Z,7.00
2023-05-09T00:55:36.355Z,6.91
2023-05-09T00:58:05.622Z,6.89
2023-05-09T01:00:33.830Z,6.86
2023-05-09T01:03:02.033Z,6.86
2023-05-09T01:05:35.776Z,6.80
2023-05-09T01:08:10.210Z,6.75
2023-05-09T01:10:47.025Z,6.73
2023-05-09T01:13:25.900Z,6.75
2023-05-09T01:16:01.690Z,6.70
2023-05-09T01:18:35.150Z,6.61
2023-05-09T01:21:08.135Z,6.63
2023-05-09T01:24:01.623Z,6.66
2023-05-09T01:26:45.944Z,6.57
2023-05-09T01:29:37.002Z,6.55
2023-05-09T01:32:11.042Z,6.43
2023-05-09T01:34:41.890Z,6.41
2023-05-09T01:37:12.783Z,6.39
2023-05-09T01:39:43.658Z,6.42
2023-05-09T01:42:14.628Z,6.35
2023-05-09T01:44:45.282Z,6.27
2023-05-09T01:47:13.534Z,6.23
2023-05-09T01:49:43.188Z,6.25
2023-05-09T01:52:14.824Z,6.19
2023-05-09T01:54:45.071Z,6.22
2023-05-09T01:57:13.965Z,6.15
2023-05-09T01:59:47.326Z,6.19
2023-05-09T02:02:16.545Z,6.13
2023-05-09T02:04:45.608Z,6.17
2023-05-09T02:07:14.030Z,6.15
2023-05-09T02:09:42.326Z,6.14
2023-05-09T02:12:10.845Z,6.12
2023-05-09T02:14:39.003Z,6.11
2023-05-09T02:17:10.823Z,6.14
2023-05-09T02:19:39.228Z,6.12
2023-05-09T02:22:07.280Z,6.05
2023-05-09T02:24:35.497Z,6.06
2023-05-09T02:27:04.746Z,6.05
2023-05-09T02:29:40.482Z,6.01
2023-05-09T02:32:14.411Z,6.00
2023-05-09T02:34:44.110Z,6.01
2023-05-09T02:37:12.902Z,6.03
2023-05-09T02:39:41.200Z,5.99
2023-05-09T02:42:11.650Z,5.96
2023-05-09T02:44:40.177Z,5.96
2023-05-09T02:47:10.793Z,5.98
2023-05-09T02:49:39.906Z,5.96
2023-05-09T02:52:08.008Z,5.96
2023-05-09T02:54:36.131Z,5.96
2023-05-09T02:57:04.253Z,5.96
2023-05-09T02:59:33.202Z,5.96
2023-05-09T03:02:01.315Z,5.98
2023-05-09T03:04:30.886Z,5.99
2023-05-09T03:06:58.972Z,6.01
2023-05-09T03:09:27.135Z,6.03
2023-05-09T03:11:56.336Z,6.03
2023-05-09T03:14:24.514Z,6.06
2023-05-09T03:16:52.642Z,6.10
2023-05-09T03:19:20.712Z,6.12
2023-05-09T03:21:50.158Z,6.14
2023-05-09T03:24:18.277Z,6.17
2023-05-09T03:26:46.386Z,6.22
2023-05-09T03:29:14.430Z,6.28
2023-05-09T03:31:42.500Z,6.28
2023-05-09T03:34:15.128Z,6.26
2023-05-09T03:36:43.779Z,6.43
2023-05-09T03:39:13.354Z,6.50
2023-05-09T03:41:42.005Z,6.84
2023-05-09T03:44:10.068Z,7.98
2023-05-09T03:46:38.211Z,9.17
2023-05-09T03:49:06.349Z,9.79
2023-05-09T03:51:34.552Z,10.61
2023-05-09T03:54:02.701Z,11.08
2023-05-09T03:56:32.211Z,11.11
2023-05-09T03:59:00.304Z,11.56
2023-05-09T04:01:28.450Z,12.16
2023-05-09T04:03:57.757Z,12.85
2023-05-09T04:06:26.098Z,13.08
2023-05-09T04:08:54.270Z,13.09
2023-05-09T04:11:22.844Z,13.68
2023-05-09T04:13:52.297Z,13.78
2023-05-09T04:16:20.466Z,13.54
2023-05-09T04:18:48.586Z,13.46
2023-05-09T04:21:16.677Z,13.55
2023-05-09T04:23:44.798Z,14.25
2023-05-09T04:26:14.067Z,14.64
2023-05-09T04:28:42.240Z,14.75
2023-05-09T04:31:12.978Z,16.33
2023-05-09T04:33:41.181Z,16.20
2023-05-09T04:36:10.067Z,16.40
2023-05-09T04:38:38.082Z,16.75
2023-05-09T04:41:06.157Z,17.08
2023-05-09T04:43:34.685Z,17.80
2023-05-09T04:46:02.845Z,17.57
2023-05-09T04:48:32.374Z,17.03
2023-05-09T04:51:00.513Z,16.88
2023-05-09T04:53:28.665Z,17.37
2023-05-09T04:55:56.890Z,17.87
2023-05-09T04:58:25.933Z,16.40
2023-05-09T05:00:54.221Z,17.43
2023-05-09T05:03:22.281Z,17.38
2023-05-09T05:05:51.802Z,17.76
2023-05-09T05:08:19.967Z,17.72
2023-05-09T05:10:49.170Z,17.71
2023-05-09T05:13:17.402Z,18.81
2023-05-09T05:15:45.663Z,18.24
2023-05-09T05:18:13.866Z,18.44
2023-05-09T05:20:42.020Z,18.84
2023-05-09T05:23:12.224Z,18.38
2023-05-09T05:25:40.505Z,18.13
2023-05-09T05:28:08.630Z,18.83
2023-05-09T05:30:36.843Z,19.54
2023-05-09T05:33:05.216Z,19.09
2023-05-09T05:35:33.488Z,18.87
2023-05-09T05:38:01.734Z,17.68
2023-05-09T05:40:31.276Z,19.10
2023-05-09T05:42:59.395Z,17.95
2023-05-09T05:45:27.585Z,18.26
2023-05-09T05:47:56.392Z,19.33
2023-05-09T05:50:24.677Z,17.28
2023-05-09T05:52:53.138Z,18.60
2023-05-09T05:55:21.354Z,18.78
2023-05-09T05:57:50.848Z,18.93
2023-05-09T06:00:19.419Z,18.89
2023-05-09T06:02:48.346Z,18.36
2023-05-09T06:05:16.946Z,18.39
2023-05-09T06:07:45.719Z,17.87
2023-05-09T06:10:15.983Z,17.81
2023-05-09T06:12:44.135Z,17.96
2023-05-09T06:15:14.192Z,18.31
2023-05-09T06:17:42.700Z,17.03
2023-05-09T06:20:11.157Z,17.30
2023-05-09T06:22:39.418Z,17.05
2023-05-09T06:25:10.364Z,17.56
2023-05-09T06:27:38.795Z,17.87
2023-05-09T06:30:23.720Z,16.74
2023-05-09T06:32:54.936Z,16.74
2023-05-09T06:35:23.449Z,16.21
2023-05-09T06:37:51.550Z,16.57
2023-05-09T06:40:19.825Z,16.43
2023-05-09T06:42:47.958Z,17.11
2023-05-09T06:45:16.525Z,16.40
2023-05-09T06:47:44.794Z,17.19
2023-05-09T06:50:14.496Z,17.03
2023-05-09T06:52:42.647Z,16.91
2023-05-09T06:55:11.707Z,16.08
2023-05-09T06:57:40.288Z,15.96
2023-05-09T07:00:09.484Z,16.44
2023-05-09T07:02:41.922Z,16.48
2023-05-09T07:05:10.985Z,16.51
2023-05-09T07:07:40.886Z,16.34
2023-05-09T07:10:12.252Z,16.17
2023-05-09T07:12:41.142Z,15.91
2023-05-09T07:15:11.129Z,16.28
2023-05-09T07:17:39.502Z,16.26
2023-05-09T07:20:08.811Z,15.74
2023-05-09T07:22:37.770Z,15.48
2023-05-09T07:25:09.616Z,14.99
2023-05-09T07:27:37.950Z,15.02
2023-05-09T07:30:06.932Z,15.23
2023-05-09T07:32:35.074Z,15.39
2023-05-09T07:35:03.433Z,15.49
2023-05-09T07:37:31.647Z,16.05
2023-05-09T07:40:00.546Z,15.90
2023-05-09T07:42:32.721Z,16.14
2023-05-09T07:45:01.144Z,16.31
2023-05-09T07:47:29.307Z,15.87
2023-05-09T07:49:57.589Z,15.52
2023-05-09T07:52:25.699Z,15.47
2023-05-09T07:54:54.776Z,15.63
2023-05-09T07:57:22.930Z,15.83
2023-05-09T07:59:52.524Z,15.84
2023-05-09T08:02:20.977Z,15.41
2023-05-09T08:04:49.460Z,15.63
2023-05-09T08:07:17.775Z,15.68
2023-05-09T08:09:45.814Z,15.39
2023-05-09T08:12:14.030Z,15.46
2023-05-09T08:14:42.177Z,15.46
2023-05-09T08:17:11.735Z,15.42
2023-05-09T08:19:39.774Z,15.38
2023-05-09T08:22:07.907Z,15.38
2023-05-09T08:24:36.330Z,15.15
2023-05-09T08:27:04.638Z,15.16
2023-05-09T08:29:32.835Z,15.49
2023-05-09T08:32:01.264Z,15.65
2023-05-09T08:34:34.778Z,15.72
2023-05-09T08:37:03.230Z,15.75
2023-05-09T08:39:31.523Z,15.86
2023-05-09T08:42:02.056Z,15.68
2023-05-09T08:44:31.577Z,15.83
2023-05-09T08:47:01.881Z,16.02
2023-05-09T08:49:31.767Z,15.88
2023-05-09T08:52:00.939Z,15.87
2023-05-09T08:54:30.174Z,16.11
2023-05-09T08:56:59.382Z,16.48
2023-05-09T08:59:28.249Z,16.63
2023-05-09T09:01:56.737Z,16.95
2023-05-09T09:04:24.974Z,17.05
2023-05-09T09:06:55.878Z,17.20
2023-05-09T09:09:24.431Z,17.01
2023-05-09T09:11:53.513Z,16.98
2023-05-09T09:14:25.684Z,17.11
2023-05-09T09:16:55.891Z,16.79
2023-05-09T09:19:29.297Z,16.67
2023-05-09T09:22:01.142Z,16.60
2023-05-09T09:24:29.276Z,16.84
2023-05-09T09:26:57.495Z,17.11
2023-05-09T09:29:28.850Z,17.23
2023-05-09T09:31:57.160Z,17.10
2023-05-09T09:34:25.500Z,17.49
2023-05-09T09:36:53.613Z,18.06
2023-05-09T09:39:23.252Z,18.05
2023-05-09T09:41:51.574Z,18.07
2023-05-09T09:44:21.363Z,18.19
2023-05-09T09:46:51.049Z,18.19
2023-05-09T09:49:20.434Z,18.26
2023-05-09T09:51:52.480Z,18.12
2023-05-09T09:54:22.867Z,17.56
2023-05-09T09:56:53.398Z,18.07
2023-05-09T09:59:25.062Z,17.53
2023-05-09T10:01:58.356Z,17.84
2023-05-09T10:04:28.423Z,17.89
2023-05-09T10:06:58.101Z,17.95
2023-05-09T10:09:29.146Z,18.26
2023-05-09T10:11:58.143Z,18.37
2023-05-09T10:14:27.901Z,18.17
2023-05-09T10:17:00.021Z,18.32
2023-05-09T10:19:30.086Z,18.78
2023-05-09T10:21:59.903Z,18.81
2023-05-09T10:24:36.804Z,18.53
2023-05-09T10:27:07.599Z,18.46
2023-05-09T10:29:38.239Z,18.09
2023-05-09T10:32:17.981Z,17.59
2023-05-09T10:34:50.495Z,17.20
2023-05-09T10:37:18.688Z,16.65
2023-05-09T10:39:53.186Z,16.80
2023-05-09T10:42:23.101Z,17.33
2023-05-09T10:44:51.440Z,17.70
2023-05-09T10:47:20.311Z,18.27
2023-05-09T10:49:50.044Z,18.36
2023-05-09T10:52:19.081Z,18.42
2023-05-09T10:54:59.939Z,17.91
2023-05-09T10:57:28.723Z,17.42
2023-05-09T10:59:59.537Z,17.74
2023-05-09T11:02:31.161Z,17.63
2023-05-09T11:05:15.799Z,17.34
2023-05-09T11:07:44.431Z,17.27
2023-05-09T11:10:17.968Z,17.85
2023-05-09T11:12:58.285Z,17.65
2023-05-09T11:15:27.872Z,17.47
2023-05-09T11:18:07.084Z,17.29
2023-05-09T11:20:36.668Z,17.40
2023-05-09T11:23:06.972Z,17.99
2023-05-09T11:25:36.614Z,18.57
2023-05-09T11:28:07.498Z,18.25
2023-05-09T11:30:41.976Z,17.95
2023-05-09T11:33:24.089Z,17.46
2023-05-09T11:36:16.764Z,17.81
2023-05-09T11:38:45.261Z,17.93
2023-05-09T11:41:15.060Z,18.09
2023-05-09T11:43:44.637Z,18.03
2023-05-09T11:46:13.204Z,17.66
2023-05-09T11:48:42.240Z,16.83
2023-05-09T11:51:18.450Z,17.00
2023-05-09T11:53:47.920Z,16.99
2023-05-09T11:56:18.060Z,17.57
2023-05-09T11:58:46.999Z,17.32
2023-05-09T12:01:15.205Z,17.26
2023-05-09T12:03:46.700Z,17.06
2023-05-09T12:06:19.007Z,17.23
2023-05-09T12:08:47.811Z,17.43
2023-05-09T12:11:17.736Z,17.20
2023-05-09T12:13:48.084Z,17.30
2023-05-09T12:16:17.117Z,17.59
2023-05-09T12:18:49.292Z,17.28
2023-05-09T12:21:17.609Z,17.23
2023-05-09T12:23:46.719Z,17.42
2023-05-09T12:26:17.735Z,17.15
2023-05-09T12:28:48.602Z,17.16
2023-05-09T12:31:18.697Z,17.40
2023-05-09T12:33:47.089Z,17.61
2023-05-09T12:36:16.166Z,18.13
2023-05-09T12:38:55.446Z,18.20
2023-05-09T12:43:56.219Z,19.17
2023-05-09T12:46:24.489Z,18.84
2023-05-09T12:48:52.720Z,18.77
2023-05-09T12:51:22.300Z,18.47
2023-05-09T12:53:52.880Z,18.19
2023-05-09T12:56:23.703Z,18.08
2023-05-09T12:58:54.414Z,18.17
2023-05-09T13:01:23.894Z,18.07
2023-05-09T13:04:02.821Z,18.42
2023-05-09T13:06:31.001Z,18.66
2023-05-09T13:09:01.577Z,18.27
2023-05-09T13:11:30.721Z,18.06
2023-05-09T13:14:00.536Z,18.05
2023-05-09T13:16:28.642Z,18.01
2023-05-09T13:18:56.869Z,17.88
2023-05-09T13:21:25.047Z,17.83
2023-05-09T13:23:53.153Z,18.52
2023-05-09T13:26:21.672Z,18.95
2023-05-09T13:28:49.874Z,19.05
2023-05-09T13:31:20.081Z,19.23
2023-05-09T13:33:50.019Z,19.18
2023-05-09T13:36:19.972Z,19.30
2023-05-09T13:38:48.202Z,19.13
2023-05-09T13:41:20.907Z,18.38
2023-05-09T13:43:49.035Z,18.37
2023-05-09T13:46:17.237Z,18.20
2023-05-09T13:48:47.857Z,18.32
2023-05-09T13:51:16.128Z,18.62
2023-05-09T13:53:44.253Z,18.58
2023-05-09T13:56:12.469Z,18.02
2023-05-09T13:58:43.657Z,17.95
2023-05-09T14:01:12.204Z,17.91
2023-05-09T14:03:41.020Z,17.61
2023-05-09T14:06:15.545Z,17.33
2023-05-09T14:08:43.778Z,17.34
2023-05-09T14:11:12.054Z,17.52
2023-05-09T14:13:40.564Z,17.57
2023-05-09T14:16:08.930Z,17.51
2023-05-09T14:18:37.130Z,17.52
2023-05-09T14:21:05.574Z,17.33
2023-05-09T14:23:35.072Z,17.33
2023-05-09T14:26:03.226Z,17.35
2023-05-09T14:28:31.369Z,17.49
2023-05-09T14:30:59.515Z,17.67
2023-05-09T14:33:29.264Z,17.75
2023-05-09T14:35:57.398Z,17.97
2023-05-09T14:38:25.618Z,18.39
2023-05-09T14:40:55.156Z,18.57
2023-05-09T14:43:24.423Z,18.50
2023-05-09T14:45:53.668Z,18.14
2023-05-09T14:48:21.773Z,18.01
2023-05-09T14:50:53.668Z,17.59
2023-05-09T14:53:22.660Z,17.40
2023-05-09T14:55:51.006Z,17.38
2023-05-09T14:58:20.681Z,17.33
2023-05-09T15:00:49.222Z,17.13
2023-05-09T15:03:17.391Z,16.99
2023-05-09T15:05:45.773Z,17.11
2023-05-09T15:08:14.603Z,17.26
2023-05-09T15:10:42.840Z,17.47
2023-05-09T15:13:11.960Z,17.60
2023-05-09T15:15:42.788Z,17.68
2023-05-09T15:18:13.291Z,17.78
2023-05-09T15:20:41.571Z,17.74
2023-05-09T15:23:09.638Z,17.59
2023-05-09T15:25:37.867Z,17.60
2023-05-09T15:28:07.047Z,17.73
2023-05-09T15:30:38.119Z,17.95
2023-05-09T15:33:08.489Z,18.01
2023-05-09T15:35:36.667Z,18.34
2023-05-09T15:38:04.721Z,17.90
2023-05-09T15:40:32.819Z,17.91
2023-05-09T15:43:07.373Z,17.65
2023-05-09T15:45:38.060Z,17.42
2023-05-09T15:48:07.837Z,17.22
2023-05-09T15:50:36.037Z,17.10
2023-05-09T15:53:04.172Z,17.10
2023-05-09T15:55:33.361Z,16.96
2023-05-09T15:58:01.686Z,16.80
2023-05-09T16:00:30.424Z,16.82
2023-05-09T16:02:59.851Z,16.86
2023-05-09T16:05:29.337Z,17.18
2023-05-09T16:07:57.412Z,17.23
2023-05-09T16:10:25.667Z,17.17
2023-05-09T16:12:54.104Z,17.27
2023-05-09T16:15:22.141Z,17.16
2023-05-09T16:17:50.216Z,17.03
2023-05-09T16:20:18.508Z,17.16
2023-05-09T16:22:48.194Z,16.92
2023-05-09T16:25:17.464Z,16.86
2023-05-09T16:27:45.772Z,16.86
2023-05-09T16:30:15.263Z,16.77
2023-05-09T16:32:43.641Z,16.50
2023-05-09T16:35:11.832Z,16.25
2023-05-09T16:37:39.945Z,16.15
2023-05-09T16:40:10.806Z,16.21
2023-05-09T16:42:41.467Z,16.10
2023-05-09T16:45:11.354Z,16.12
2023-05-09T16:47:39.455Z,16.03
2023-05-09T16:50:08.399Z,15.94
2023-05-09T16:52:36.467Z,15.92
2023-05-09T16:55:05.030Z,15.83
2023-05-09T16:57:34.644Z,15.81
2023-05-09T17:00:02.696Z,15.77
2023-05-09T17:02:30.955Z,15.73
2023-05-09T17:04:59.757Z,15.75
2023-05-09T17:07:27.808Z,15.70
2023-05-09T17:09:55.868Z,15.63
2023-05-09T17:12:24.011Z,15.58
2023-05-09T17:14:53.588Z,15.55
2023-05-09T17:17:21.691Z,15.51
2023-05-09T17:19:49.853Z,15.50
2023-05-09T17:22:18.155Z,15.45
2023-05-09T17:24:46.266Z,15.45
2023-05-09T17:27:14.375Z,15.34
2023-05-09T17:29:42.467Z,15.32
2023-05-09T17:32:11.877Z,15.27
2023-05-09T17:34:40.710Z,15.16
2023-05-09T17:37:09.267Z,15.14
2023-05-09T17:39:37.912Z,15.06
2023-05-09T17:42:06.962Z,14.93
2023-05-09T17:44:35.148Z,14.85
2023-05-09T17:47:03.504Z,14.82
2023-05-09T17:49:36.564Z,14.78
2023-05-09T17:52:04.718Z,14.69
2023-05-09T17:54:32.872Z,14.56
2023-05-09T17:57:01.927Z,14.44
2023-05-09T17:59:30.224Z,14.41
2023-05-09T18:01:58.510Z,14.35
2023-05-09T18:04:27.411Z,14.38
2023-05-09T18:06:56.960Z,14.27
2023-05-09T18:09:25.073Z,14.26
2023-05-09T18:11:53.258Z,14.16
2023-05-09T18:14:21.476Z,14.18
2023-05-09T18:16:49.642Z,14.03
2023-05-09T18:19:18.066Z,13.95
2023-05-09T18:21:46.530Z,13.97
2023-05-09T18:24:17.147Z,13.83
2023-05-09T18:26:45.481Z,13.71
2023-05-09T18:29:13.652Z,13.69
2023-05-09T18:31:41.911Z,13.69
2023-05-09T18:34:10.451Z,13.68
2023-05-09T18:36:38.775Z,13.81
2023-05-09T18:39:06.859Z,13.84
2023-05-09T18:41:36.380Z,13.79
2023-05-09T18:44:04.602Z,13.74
2023-05-09T18:46:33.882Z,13.75
2023-05-09T18:49:03.146Z,13.77
2023-05-09T18:51:34.410Z,13.75
2023-05-09T18:54:03.257Z,13.71
2023-05-09T18:56:37.758Z,13.67
2023-05-09T18:59:09.711Z,13.60
2023-05-09T19:01:38.602Z,13.43
2023-05-09T19:04:07.097Z,13.30
2023-05-09T19:06:35.699Z,13.22
2023-05-09T19:09:05.619Z,13.10
2023-05-09T19:11:34.290Z,12.99
2023-05-09T19:14:04.191Z,12.95
2023-05-09T19:16:35.065Z,12.97
2023-05-09T19:19:04.255Z,13.07
2023-05-09T19:21:34.919Z,13.11
2023-05-09T19:24:04.810Z,13.06
2023-05-09T19:26:33.304Z,12.99
2023-05-09T19:29:08.330Z,12.96
2023-05-09T19:31:41.056Z,12.95
2023-05-09T19:34:13.346Z,12.83
2023-05-09T19:36:42.466Z,12.79
2023-05-09T19:39:11.902Z,12.71
2023-05-09T19:41:40.256Z,12.68
2023-05-09T19:44:09.777Z,12.74
2023-05-09T19:46:43.648Z,12.69
2023-05-09T19:49:18.118Z,12.67
2023-05-09T19:51:53.096Z,12.61
2023-05-09T19:54:23.516Z,12.47
2023-05-09T19:56:52.581Z,12.40
2023-05-09T19:59:21.056Z,12.28
2023-05-09T20:01:50.852Z,12.21
2023-05-09T20:04:21.826Z,12.16
2023-05-09T20:06:50.736Z,12.16
2023-05-09T20:09:22.050Z,12.10
2023-05-09T20:11:51.443Z,12.08
2023-05-09T20:14:20.256Z,12.12
2023-05-09T20:16:49.098Z,12.24
2023-05-09T20:19:20.426Z,12.17
2023-05-09T20:21:50.116Z,12.21
2023-05-09T20:24:23.804Z,12.21
2023-05-09T20:26:53.201Z,12.15
2023-05-09T20:29:22.754Z,12.21
2023-05-09T20:31:51.838Z,12.14
2023-05-09T20:34:23.586Z,12.00
2023-05-09T20:36:54.451Z,11.93
2023-05-09T20:39:24.172Z,11.92
2023-05-09T20:41:54.285Z,11.86
2023-05-09T20:44:24.416Z,11.86
2023-05-09T20:46:55.094Z,11.88
2023-05-09T20:49:26.609Z,11.83
2023-05-09T20:51:55.606Z,11.91
2023-05-09T20:54:24.302Z,11.83
2023-05-09T20:56:52.614Z,11.77
2023-05-09T20:59:20.633Z,11.77
2023-05-09T21:01:48.659Z,11.78
2023-05-09T21:04:16.978Z,11.78
2023-05-09T21:06:46.416Z,11.70
2023-05-09T21:09:14.879Z,11.69
2023-05-09T21:11:42.920Z,11.73
2023-05-09T21:14:10.990Z,11.65
2023-05-09T21:16:39.238Z,11.59
2023-05-09T21:19:08.884Z,11.61
2023-05-09T21:21:37.014Z,11.64
2023-05-09T21:24:09.252Z,11.68
2023-05-09T21:26:37.634Z,11.65
2023-05-09T21:29:06.636Z,11.73
2023-05-09T21:31:37.192Z,11.76
2023-05-09T21:34:09.893Z,11.73
2023-05-09T21:36:38.717Z,11.75
2023-05-09T21:39:09.702Z,11.76
2023-05-09T21:41:38.997Z,11.80
2023-05-09T21:44:07.440Z,11.78
2023-05-09T21:46:36.343Z,11.77
2023-05-09T21:49:05.188Z,11.73
2023-05-09T21:51:33.545Z,11.72
2023-05-09T21:54:02.072Z,11.74
2023-05-09T21:56:31.573Z,11.76
2023-05-09T21:58:59.572Z,11.76
2023-05-09T22:01:27.595Z,11.78
2023-05-09T22:03:56.467Z,11.75
2023-05-09T22:06:24.578Z,11.79
2023-05-09T22:08:52.713Z,11.81
2023-05-09T22:11:22.284Z,11.81
2023-05-09T22:13:52.082Z,11.88
2023-05-09T22:16:20.158Z,11.88
2023-05-09T22:18:48.215Z,11.95
2023-05-09T22:21:16.319Z,11.98
2023-05-09T22:23:44.523Z,12.00
2023-05-09T22:26:12.614Z,11.95
2023-05-09T22:28:40.678Z,11.95
2023-05-09T22:31:10.598Z,11.99
2023-05-09T22:33:38.661Z,11.93
2023-05-09T22:36:07.420Z,11.96
2023-05-09T22:38:35.461Z,11.94
2023-05-09T22:41:03.493Z,11.74
2023-05-09T22:43:38.700Z,11.83
2023-05-09T22:46:07.809Z,11.78
2023-05-09T22:48:37.468Z,11.81
2023-05-09T22:51:05.635Z,11.65
2023-05-09T22:53:33.997Z,11.61
2023-05-09T22:56:02.273Z,11.54
2023-05-09T22:58:30.372Z,11.53
2023-05-09T23:00:58.442Z,11.51
2023-05-09T23:03:26.690Z,11.59
2023-05-09T23:05:56.267Z,11.53
2023-05-09T23:08:24.368Z,11.47
2023-05-09T23:10:52.870Z,11.46
2023-05-09T23:13:21.226Z,11.48
2023-05-09T23:15:49.446Z,11.48
2023-05-09T23:18:17.603Z,11.47
2023-05-09T23:20:46.450Z,11.46
2023-05-09T23:23:15.998Z,11.47
2023-05-09T23:25:44.576Z,11.46
2023-05-09T23:28:12.772Z,11.46
2023-05-09T23:30:40.912Z,11.42
2023-05-09T23:33:09.096Z,11.35
2023-05-09T23:35:37.291Z,11.33
2023-05-09T23:38:05.453Z,11.25
2023-05-09T23:40:34.906Z,11.16
2023-05-09T23:43:03.057Z,11.11
2023-05-09T23:45:31.496Z,11.13
2023-05-09T23:47:59.633Z,11.14
2023-05-09T23:50:27.781Z,11.15
2023-05-09T23:52:55.882Z,11.10
2023-05-09T23:55:23.993Z,11.00
2023-05-09T23:57:53.433Z,10.94
